sensor_id;sensor_type;location;lat;lon;timestamp;temperature;humidity
5930;DHT22;2990;48.746;9.236;2023-06-22T00:01:03;21.00;99.90
5930;DHT22;2990;48.746;9.236;2023-06-22T00:03:28;21.00;99.90
5930;DHT22;2990;48.746;9.236;2023-06-22T00:05:54;21.00;99.90
5930;DHT22;2990;48.746;9.236;2023-06-22T00:08:20;21.00;99.90
5930;DHT22;2990;48.746;9.236;2023-06-22T00:10:46;21.00;99.90
5930;DHT22;2990;48.746;9.236;2023-06-22T00:13:12;21.00;99.90
5930;DHT22;2990;48.746;9.236;2023-06-22T00:15:40;20.90;99.90
5930;DHT22;2990;48.746;9.236;2023-06-22T00:18:06;20.90;99.90
5930;DHT22;2990;48.746;9.236;2023-06-22T00:20:32;20.90;1.00
5930;DHT22;2990;48.746;9.236;2023-06-22T00:22:59;20.90;99.90
5930;DHT22;2990;48.746;9.236;2023-06-22T00:25:25;20.90;99.90
5930;DHT22;2990;48.746;9.236;2023-06-22T00:27:50;20.90;1.00
5930;DHT22;2990;48.746;9.236;2023-06-22T00:30:17;20.90;99.90
5930;DHT22;2990;48.746;9.236;2023-06-22T00:32:44;20.80;1.00
5930;DHT22;2990;48.746;9.236;2023-06-22T00:35:11;20.80;1.00
5930;DHT22;2990;48.746;9.236;2023-06-22T00:37:37;20.80;1.00
5930;DHT22;2990;48.746;9.236;2023-06-22T00:40:04;20.80;1.00
5930;DHT22;2990;48.746;9.236;2023-06-22T00:42:30;20.80;1.00
5930;DHT22;2990;48.746;9.236;2023-06-22T00:44:56;20.70;1.00
5930;DHT22;2990;48.746;9.236;2023-06-22T00:47:22;20.70;1.00
5930;DHT22;2990;48.746;9.236;2023-06-22T00:49:48;20.70;1.00
5930;DHT22;2990;48.746;9.236;2023-06-22T00:52:16;20.70;1.00
5930;DHT22;2990;48.746;9.236;2023-06-22T00:54:48;20.70;1.00
5930;DHT22;2990;48.746;9.236;2023-06-22T00:57:17;20.70;1.00
5930;DHT22;2990;48.746;9.236;2023-06-22T00:59:44;20.60;1.00
5930;DHT22;2990;48.746;9.236;2023-06-22T01:02:10;20.70;1.00
5930;DHT22;2990;48.746;9.236;2023-06-22T01:04:37;20.70;1.00
5930;DHT22;2990;48.746;9.236;2023-06-22T01:09:44;20.70;99.90
5930;DHT22;2990;48.746;9.236;2023-06-22T01:12:10;20.70;99.90
5930;DHT22;2990;48.746;9.236;2023-06-22T01:14:43;20.70;99.90
5930;DHT22;2990;48.746;9.236;2023-06-22T01:17:12;20.70;99.90
5930;DHT22;2990;48.746;9.236;2023-06-22T01:22:15;20.70;99.90
5930;DHT22;2990;48.746;9.236;2023-06-22T01:30:22;20.70;99.90
5930;DHT22;2990;48.746;9.236;2023-06-22T01:32:51;20.70;99.90
5930;DHT22;2990;48.746;9.236;2023-06-22T01:35:17;20.70;99.90
5930;DHT22;2990;48.746;9.236;2023-06-22T01:37:44;20.70;99.90
5930;DHT22;2990;48.746;9.236;2023-06-22T01:40:10;20.70;99.90
5930;DHT22;2990;48.746;9.236;2023-06-22T01:42:37;20.60;1.00
5930;DHT22;2990;48.746;9.236;2023-06-22T01:45:03;20.50;1.00
5930;DHT22;2990;48.746;9.236;2023-06-22T01:47:30;20.40;1.00
5930;DHT22;2990;48.746;9.236;2023-06-22T01:49:56;20.40;1.00
5930;DHT22;2990;48.746;9.236;2023-06-22T01:52:22;20.40;1.00
5930;DHT22;2990;48.746;9.236;2023-06-22T01:54:47;20.30;1.00
5930;DHT22;2990;48.746;9.236;2023-06-22T01:57:13;20.30;1.00
5930;DHT22;2990;48.746;9.236;2023-06-22T01:59:52;20.30;1.00
5930;DHT22;2990;48.746;9.236;2023-06-22T02:02:21;20.20;1.00
5930;DHT22;2990;48.746;9.236;2023-06-22T02:04:59;20.20;1.00
5930;DHT22;2990;48.746;9.236;2023-06-22T02:07:32;20.20;1.00
5930;DHT22;2990;48.746;9.236;2023-06-22T02:09:59;20.20;1.00
5930;DHT22;2990;48.746;9.236;2023-06-22T02:12:27;20.10;1.00
5930;DHT22;2990;48.746;9.236;2023-06-22T02:14:54;20.00;1.00
5930;DHT22;2990;48.746;9.236;2023-06-22T02:17:20;20.10;1.00
5930;DHT22;2990;48.746;9.236;2023-06-22T02:19:46;20.00;1.00
5930;DHT22;2990;48.746;9.236;2023-06-22T02:22:11;20.00;1.00
5930;DHT22;2990;48.746;9.236;2023-06-22T02:24:39;19.80;1.00
5930;DHT22;2990;48.746;9.236;2023-06-22T02:27:04;19.90;1.00
5930;DHT22;2990;48.746;9.236;2023-06-22T02:29:32;19.90;1.00
5930;DHT22;2990;48.746;9.236;2023-06-22T02:31:58;19.80;1.00
5930;DHT22;2990;48.746;9.236;2023-06-22T02:34:24;19.80;1.00
5930;DHT22;2990;48.746;9.236;2023-06-22T02:36:50;19.80;1.00
5930;DHT22;2990;48.746;9.236;2023-06-22T02:39:20;19.80;1.00
5930;DHT22;2990;48.746;9.236;2023-06-22T02:41:48;19.70;1.00
5930;DHT22;2990;48.746;9.236;2023-06-22T02:44:13;19.70;1.00
5930;DHT22;2990;48.746;9.236;2023-06-22T02:46:39;19.80;1.00
5930;DHT22;2990;48.746;9.236;2023-06-22T02:49:04;19.60;1.00
5930;DHT22;2990;48.746;9.236;2023-06-22T02:51:32;19.70;1.00
5930;DHT22;2990;48.746;9.236;2023-06-22T02:53:59;19.70;1.00
5930;DHT22;2990;48.746;9.236;2023-06-22T02:56:24;19.70;1.00
5930;DHT22;2990;48.746;9.236;2023-06-22T02:58:51;19.60;1.00
5930;DHT22;2990;48.746;9.236;2023-06-22T03:01:16;19.60;1.00
5930;DHT22;2990;48.746;9.236;2023-06-22T03:03:42;19.70;1.00
5930;DHT22;2990;48.746;9.236;2023-06-22T03:06:07;19.60;1.00
5930;DHT22;2990;48.746;9.236;2023-06-22T03:08:34;19.60;1.00
5930;DHT22;2990;48.746;9.236;2023-06-22T03:10:59;19.70;1.00
5930;DHT22;2990;48.746;9.236;2023-06-22T03:13:25;19.60;1.00
5930;DHT22;2990;48.746;9.236;2023-06-22T03:15:50;19.60;1.00
5930;DHT22;2990;48.746;9.236;2023-06-22T03:18:16;19.60;1.00
5930;DHT22;2990;48.746;9.236;2023-06-22T03:20:42;19.60;1.00
5930;DHT22;2990;48.746;9.236;2023-06-22T03:23:07;19.50;1.00
5930;DHT22;2990;48.746;9.236;2023-06-22T03:25:33;19.60;1.00
5930;DHT22;2990;48.746;9.236;2023-06-22T03:27:59;19.50;1.00
5930;DHT22;2990;48.746;9.236;2023-06-22T03:30:26;19.50;1.00
5930;DHT22;2990;48.746;9.236;2023-06-22T03:32:51;19.40;1.00
5930;DHT22;2990;48.746;9.236;2023-06-22T03:35:17;19.60;1.00
5930;DHT22;2990;48.746;9.236;2023-06-22T03:37:42;19.40;1.00
5930;DHT22;2990;48.746;9.236;2023-06-22T03:40:08;19.40;1.00
5930;DHT22;2990;48.746;9.236;2023-06-22T03:42:34;19.40;1.00
5930;DHT22;2990;48.746;9.236;2023-06-22T03:45:03;19.40;1.00
5930;DHT22;2990;48.746;9.236;2023-06-22T03:47:29;19.40;1.00
5930;DHT22;2990;48.746;9.236;2023-06-22T03:49:55;19.40;1.00
5930;DHT22;2990;48.746;9.236;2023-06-22T03:52:21;19.30;1.00
5930;DHT22;2990;48.746;9.236;2023-06-22T03:54:47;19.30;1.00
5930;DHT22;2990;48.746;9.236;2023-06-22T03:57:13;19.40;1.00
5930;DHT22;2990;48.746;9.236;2023-06-22T03:59:39;19.30;1.00
5930;DHT22;2990;48.746;9.236;2023-06-22T04:02:04;19.30;1.00
5930;DHT22;2990;48.746;9.236;2023-06-22T04:04:30;19.40;1.00
5930;DHT22;2990;48.746;9.236;2023-06-22T04:06:55;19.40;1.00
5930;DHT22;2990;48.746;9.236;2023-06-22T04:09:21;19.40;1.00
5930;DHT22;2990;48.746;9.236;2023-06-22T04:11:47;19.40;1.00
5930;DHT22;2990;48.746;9.236;2023-06-22T04:14:12;19.50;1.00
5930;DHT22;2990;48.746;9.236;2023-06-22T04:16:38;19.50;1.00
5930;DHT22;2990;48.746;9.236;2023-06-22T04:19:03;19.50;1.00
5930;DHT22;2990;48.746;9.236;2023-06-22T04:21:29;19.50;1.00
5930;DHT22;2990;48.746;9.236;2023-06-22T04:23:54;19.60;1.00
5930;DHT22;2990;48.746;9.236;2023-06-22T04:26:20;19.60;1.00
5930;DHT22;2990;48.746;9.236;2023-06-22T04:28:47;19.60;1.00
5930;DHT22;2990;48.746;9.236;2023-06-22T04:31:17;19.60;1.00
5930;DHT22;2990;48.746;9.236;2023-06-22T04:33:43;19.70;1.00
5930;DHT22;2990;48.746;9.236;2023-06-22T04:36:08;19.70;1.00
5930;DHT22;2990;48.746;9.236;2023-06-22T04:38:34;19.80;1.00
5930;DHT22;2990;48.746;9.236;2023-06-22T04:40:59;19.80;1.00
5930;DHT22;2990;48.746;9.236;2023-06-22T04:43:28;19.90;1.00
5930;DHT22;2990;48.746;9.236;2023-06-22T04:45:56;20.00;1.00
5930;DHT22;2990;48.746;9.236;2023-06-22T04:48:22;20.00;1.00
5930;DHT22;2990;48.746;9.236;2023-06-22T04:50:47;20.00;1.00
5930;DHT22;2990;48.746;9.236;2023-06-22T04:53:13;20.10;1.00
5930;DHT22;2990;48.746;9.236;2023-06-22T04:55:39;20.20;1.00
5930;DHT22;2990;48.746;9.236;2023-06-22T04:58:07;20.20;1.00
5930;DHT22;2990;48.746;9.236;2023-06-22T05:00:33;20.10;1.00
5930;DHT22;2990;48.746;9.236;2023-06-22T05:03:01;20.30;1.00
5930;DHT22;2990;48.746;9.236;2023-06-22T05:05:28;20.40;1.00
5930;DHT22;2990;48.746;9.236;2023-06-22T05:07:56;20.30;1.00
5930;DHT22;2990;48.746;9.236;2023-06-22T05:10:25;20.60;1.00
5930;DHT22;2990;48.746;9.236;2023-06-22T05:12:50;20.40;1.00
5930;DHT22;2990;48.746;9.236;2023-06-22T05:15:16;20.60;1.00
5930;DHT22;2990;48.746;9.236;2023-06-22T05:17:41;20.70;99.90
5930;DHT22;2990;48.746;9.236;2023-06-22T05:20:13;20.70;99.90
5930;DHT22;2990;48.746;9.236;2023-06-22T05:22:39;20.70;99.90
5930;DHT22;2990;48.746;9.236;2023-06-22T05:25:09;20.70;99.90
5930;DHT22;2990;48.746;9.236;2023-06-22T05:27:35;20.70;99.90
5930;DHT22;2990;48.746;9.236;2023-06-22T05:30:08;20.70;99.90
5930;DHT22;2990;48.746;9.236;2023-06-22T05:32:34;20.70;99.90
5930;DHT22;2990;48.746;9.236;2023-06-22T05:35:00;20.80;99.90
5930;DHT22;2990;48.746;9.236;2023-06-22T05:37:25;21.00;99.90
5930;DHT22;2990;48.746;9.236;2023-06-22T05:39:51;21.20;99.90
5930;DHT22;2990;48.746;9.236;2023-06-22T05:42:17;21.30;1.00
5930;DHT22;2990;48.746;9.236;2023-06-22T05:44:42;21.40;1.00
5930;DHT22;2990;48.746;9.236;2023-06-22T05:47:08;21.60;99.90
5930;DHT22;2990;48.746;9.236;2023-06-22T05:49:34;21.80;1.00
5930;DHT22;2990;48.746;9.236;2023-06-22T05:51:59;21.70;1.00
5930;DHT22;2990;48.746;9.236;2023-06-22T05:54:27;21.80;1.00
5930;DHT22;2990;48.746;9.236;2023-06-22T05:56:52;21.90;99.90
5930;DHT22;2990;48.746;9.236;2023-06-22T05:59:19;22.00;99.90
5930;DHT22;2990;48.746;9.236;2023-06-22T06:01:45;22.00;91.30
5930;DHT22;2990;48.746;9.236;2023-06-22T06:04:16;22.00;1.00
5930;DHT22;2990;48.746;9.236;2023-06-22T06:06:41;22.10;99.90
5930;DHT22;2990;48.746;9.236;2023-06-22T06:09:07;22.20;1.00
5930;DHT22;2990;48.746;9.236;2023-06-22T06:11:33;22.40;99.90
5930;DHT22;2990;48.746;9.236;2023-06-22T06:13:59;22.40;12.90
5930;DHT22;2990;48.746;9.236;2023-06-22T06:16:24;22.40;1.00
5930;DHT22;2990;48.746;9.236;2023-06-22T06:18:50;22.50;1.00
5930;DHT22;2990;48.746;9.236;2023-06-22T06:21:16;22.40;8.20
5930;DHT22;2990;48.746;9.236;2023-06-22T06:23:41;22.30;1.00
5930;DHT22;2990;48.746;9.236;2023-06-22T06:26:07;22.30;56.50
5930;DHT22;2990;48.746;9.236;2023-06-22T06:28:34;22.40;99.90
5930;DHT22;2990;48.746;9.236;2023-06-22T06:30:59;22.50;1.00
5930;DHT22;2990;48.746;9.236;2023-06-22T06:33:25;22.70;99.90
5930;DHT22;2990;48.746;9.236;2023-06-22T06:35:51;22.90;99.90
5930;DHT22;2990;48.746;9.236;2023-06-22T06:38:16;22.90;1.00
5930;DHT22;2990;48.746;9.236;2023-06-22T06:40:42;23.00;53.90
5930;DHT22;2990;48.746;9.236;2023-06-22T06:43:07;22.90;69.70
5930;DHT22;2990;48.746;9.236;2023-06-22T06:45:33;23.10;99.90
5930;DHT22;2990;48.746;9.236;2023-06-22T06:48:00;23.20;1.00
5930;DHT22;2990;48.746;9.236;2023-06-22T06:50:25;23.30;25.50
5930;DHT22;2990;48.746;9.236;2023-06-22T06:52:51;23.40;99.90
5930;DHT22;2990;48.746;9.236;2023-06-22T06:55:17;23.50;1.00
5930;DHT22;2990;48.746;9.236;2023-06-22T06:57:43;23.60;99.90
5930;DHT22;2990;48.746;9.236;2023-06-22T07:00:10;23.90;99.90
5930;DHT22;2990;48.746;9.236;2023-06-22T07:02:42;23.90;99.90
5930;DHT22;2990;48.746;9.236;2023-06-22T07:05:09;24.10;99.90
5930;DHT22;2990;48.746;9.236;2023-06-22T07:07:35;24.40;99.90
5930;DHT22;2990;48.746;9.236;2023-06-22T07:10:00;24.40;1.00
5930;DHT22;2990;48.746;9.236;2023-06-22T07:12:26;24.30;1.00
5930;DHT22;2990;48.746;9.236;2023-06-22T07:14:52;24.40;1.00
5930;DHT22;2990;48.746;9.236;2023-06-22T07:17:18;24.40;99.90
5930;DHT22;2990;48.746;9.236;2023-06-22T07:19:44;24.50;99.90
5930;DHT22;2990;48.746;9.236;2023-06-22T07:22:09;24.70;99.90
5930;DHT22;2990;48.746;9.236;2023-06-22T07:24:35;24.70;99.90
5930;DHT22;2990;48.746;9.236;2023-06-22T07:27:00;24.80;99.90
5930;DHT22;2990;48.746;9.236;2023-06-22T07:29:27;24.90;25.80
5930;DHT22;2990;48.746;9.236;2023-06-22T07:31:53;25.00;34.80
5930;DHT22;2990;48.746;9.236;2023-06-22T07:34:21;25.10;20.90
5930;DHT22;2990;48.746;9.236;2023-06-22T07:36:47;25.30;1.00
5930;DHT22;2990;48.746;9.236;2023-06-22T07:39:13;25.30;1.00
5930;DHT22;2990;48.746;9.236;2023-06-22T07:41:40;25.40;1.00
5930;DHT22;2990;48.746;9.236;2023-06-22T07:44:08;25.40;1.00
5930;DHT22;2990;48.746;9.236;2023-06-22T07:46:34;25.50;1.00
5930;DHT22;2990;48.746;9.236;2023-06-22T07:48:59;25.70;1.00
5930;DHT22;2990;48.746;9.236;2023-06-22T07:51:26;26.00;1.00
5930;DHT22;2990;48.746;9.236;2023-06-22T07:53:52;26.10;1.00
5930;DHT22;2990;48.746;9.236;2023-06-22T07:56:18;26.20;1.00
5930;DHT22;2990;48.746;9.236;2023-06-22T07:58:45;26.30;1.00
5930;DHT22;2990;48.746;9.236;2023-06-22T08:01:12;26.40;1.00
5930;DHT22;2990;48.746;9.236;2023-06-22T08:03:37;26.50;99.90
5930;DHT22;2990;48.746;9.236;2023-06-22T08:06:04;26.60;99.90
5930;DHT22;2990;48.746;9.236;2023-06-22T08:08:31;26.60;99.90
5930;DHT22;2990;48.746;9.236;2023-06-22T08:10:56;26.90;99.90
5930;DHT22;2990;48.746;9.236;2023-06-22T08:13:22;27.00;99.90
5930;DHT22;2990;48.746;9.236;2023-06-22T08:15:48;27.10;99.90
5930;DHT22;2990;48.746;9.236;2023-06-22T08:18:13;27.30;99.90
5930;DHT22;2990;48.746;9.236;2023-06-22T08:20:39;27.40;99.90
5930;DHT22;2990;48.746;9.236;2023-06-22T08:23:05;27.40;99.90
5930;DHT22;2990;48.746;9.236;2023-06-22T08:25:35;27.50;99.90
5930;DHT22;2990;48.746;9.236;2023-06-22T08:28:03;27.30;99.90
5930;DHT22;2990;48.746;9.236;2023-06-22T08:30:29;27.20;99.90
5930;DHT22;2990;48.746;9.236;2023-06-22T08:32:55;27.30;99.90
5930;DHT22;2990;48.746;9.236;2023-06-22T08:35:22;27.30;99.90
5930;DHT22;2990;48.746;9.236;2023-06-22T08:37:48;27.20;99.90
5930;DHT22;2990;48.746;9.236;2023-06-22T08:40:18;27.30;99.90
5930;DHT22;2990;48.746;9.236;2023-06-22T08:42:45;27.50;99.90
5930;DHT22;2990;48.746;9.236;2023-06-22T08:45:11;27.70;99.90
5930;DHT22;2990;48.746;9.236;2023-06-22T08:47:37;27.80;99.90
5930;DHT22;2990;48.746;9.236;2023-06-22T08:50:03;27.80;99.90
5930;DHT22;2990;48.746;9.236;2023-06-22T08:52:29;27.90;99.90
5930;DHT22;2990;48.746;9.236;2023-06-22T08:54:55;27.90;99.90
5930;DHT22;2990;48.746;9.236;2023-06-22T08:57:21;27.80;99.90
5930;DHT22;2990;48.746;9.236;2023-06-22T08:59:47;27.80;99.90
5930;DHT22;2990;48.746;9.236;2023-06-22T09:02:12;27.70;99.90
5930;DHT22;2990;48.746;9.236;2023-06-22T09:04:38;27.70;99.90
5930;DHT22;2990;48.746;9.236;2023-06-22T09:07:04;27.80;99.90
5930;DHT22;2990;48.746;9.236;2023-06-22T09:09:29;28.00;99.90
5930;DHT22;2990;48.746;9.236;2023-06-22T09:11:55;28.20;99.90
5930;DHT22;2990;48.746;9.236;2023-06-22T09:14:21;28.10;99.90
5930;DHT22;2990;48.746;9.236;2023-06-22T09:16:46;28.10;99.90
5930;DHT22;2990;48.746;9.236;2023-06-22T09:19:12;28.20;99.90
5930;DHT22;2990;48.746;9.236;2023-06-22T09:21:38;28.30;99.90
5930;DHT22;2990;48.746;9.236;2023-06-22T09:24:03;28.30;99.90
5930;DHT22;2990;48.746;9.236;2023-06-22T09:26:29;28.50;99.90
5930;DHT22;2990;48.746;9.236;2023-06-22T09:28:55;28.50;99.90
5930;DHT22;2990;48.746;9.236;2023-06-22T09:31:20;28.80;99.90
5930;DHT22;2990;48.746;9.236;2023-06-22T09:33:53;28.90;99.90
5930;DHT22;2990;48.746;9.236;2023-06-22T09:36:22;29.20;99.90
5930;DHT22;2990;48.746;9.236;2023-06-22T09:38:48;29.40;99.90
5930;DHT22;2990;48.746;9.236;2023-06-22T09:41:20;29.40;99.90
5930;DHT22;2990;48.746;9.236;2023-06-22T09:43:46;29.70;93.70
5930;DHT22;2990;48.746;9.236;2023-06-22T09:46:11;29.60;81.40
5930;DHT22;2990;48.746;9.236;2023-06-22T09:48:37;29.90;65.50
5930;DHT22;2990;48.746;9.236;2023-06-22T09:51:03;30.00;29.40
5930;DHT22;2990;48.746;9.236;2023-06-22T09:53:28;30.10;44.60
5930;DHT22;2990;48.746;9.236;2023-06-22T09:55:54;30.10;87.20
5930;DHT22;2990;48.746;9.236;2023-06-22T09:58:19;30.00;13.50
5930;DHT22;2990;48.746;9.236;2023-06-22T10:00:45;29.90;23.50
5930;DHT22;2990;48.746;9.236;2023-06-22T10:03:10;30.00;11.20
5930;DHT22;2990;48.746;9.236;2023-06-22T10:05:36;30.30;1.00
5930;DHT22;2990;48.746;9.236;2023-06-22T10:08:01;30.50;1.00
5930;DHT22;2990;48.746;9.236;2023-06-22T10:10:27;30.50;27.80
5930;DHT22;2990;48.746;9.236;2023-06-22T10:12:57;30.30;33.20
5930;DHT22;2990;48.746;9.236;2023-06-22T10:15:23;30.20;12.30
5930;DHT22;2990;48.746;9.236;2023-06-22T10:17:49;30.00;22.80
5930;DHT22;2990;48.746;9.236;2023-06-22T10:20:15;29.60;17.60
5930;DHT22;2990;48.746;9.236;2023-06-22T10:22:43;29.40;21.70
5930;DHT22;2990;48.746;9.236;2023-06-22T10:25:13;29.40;9.20
5930;DHT22;2990;48.746;9.236;2023-06-22T10:27:38;29.50;24.70
5930;DHT22;2990;48.746;9.236;2023-06-22T10:30:11;29.60;4.10
5930;DHT22;2990;48.746;9.236;2023-06-22T10:32:38;29.80;20.00
5930;DHT22;2990;48.746;9.236;2023-06-22T10:35:04;29.80;25.40
5930;DHT22;2990;48.746;9.236;2023-06-22T10:37:30;29.80;19.10
5930;DHT22;2990;48.746;9.236;2023-06-22T10:39:55;29.80;8.20
5930;DHT22;2990;48.746;9.236;2023-06-22T10:42:21;30.00;3.70
5930;DHT22;2990;48.746;9.236;2023-06-22T10:44:46;30.10;19.70
5930;DHT22;2990;48.746;9.236;2023-06-22T10:47:12;29.80;19.90
5930;DHT22;2990;48.746;9.236;2023-06-22T10:49:41;29.90;11.60
5930;DHT22;2990;48.746;9.236;2023-06-22T10:52:08;29.80;26.50
5930;DHT22;2990;48.746;9.236;2023-06-22T10:54:34;29.80;24.10
5930;DHT22;2990;48.746;9.236;2023-06-22T10:57:00;29.60;25.20
5930;DHT22;2990;48.746;9.236;2023-06-22T10:59:26;29.50;25.70
5930;DHT22;2990;48.746;9.236;2023-06-22T11:01:53;29.40;61.80
5930;DHT22;2990;48.746;9.236;2023-06-22T11:04:19;29.40;37.90
5930;DHT22;2990;48.746;9.236;2023-06-22T11:06:44;29.30;44.40
5930;DHT22;2990;48.746;9.236;2023-06-22T11:09:10;29.40;37.40
5930;DHT22;2990;48.746;9.236;2023-06-22T11:11:35;29.40;34.80
5930;DHT22;2990;48.746;9.236;2023-06-22T11:14:01;29.50;33.90
5930;DHT22;2990;48.746;9.236;2023-06-22T11:16:27;29.50;35.40
5930;DHT22;2990;48.746;9.236;2023-06-22T11:18:52;29.50;39.50
5930;DHT22;2990;48.746;9.236;2023-06-22T11:21:18;29.60;51.90
5930;DHT22;2990;48.746;9.236;2023-06-22T11:23:43;29.60;34.80
5930;DHT22;2990;48.746;9.236;2023-06-22T11:26:09;29.60;30.40
5930;DHT22;2990;48.746;9.236;2023-06-22T11:28:34;29.70;31.30
5930;DHT22;2990;48.746;9.236;2023-06-22T11:31:00;29.70;29.10
5930;DHT22;2990;48.746;9.236;2023-06-22T11:33:25;29.70;27.20
5930;DHT22;2990;48.746;9.236;2023-06-22T11:35:51;29.70;26.50
5930;DHT22;2990;48.746;9.236;2023-06-22T11:38:16;29.70;21.50
5930;DHT22;2990;48.746;9.236;2023-06-22T11:40:42;29.70;5.30
5930;DHT22;2990;48.746;9.236;2023-06-22T11:43:08;29.70;1.00
5930;DHT22;2990;48.746;9.236;2023-06-22T11:45:33;29.80;1.00
5930;DHT22;2990;48.746;9.236;2023-06-22T11:47:59;30.10;1.00
5930;DHT22;2990;48.746;9.236;2023-06-22T11:50:24;30.40;1.00
5930;DHT22;2990;48.746;9.236;2023-06-22T11:52:50;30.50;1.00
5930;DHT22;2990;48.746;9.236;2023-06-22T11:55:16;30.50;7.30
5930;DHT22;2990;48.746;9.236;2023-06-22T11:57:56;30.50;13.60
5930;DHT22;2990;48.746;9.236;2023-06-22T12:00:23;30.30;7.40
5930;DHT22;2990;48.746;9.236;2023-06-22T12:02:52;30.30;9.90
5930;DHT22;2990;48.746;9.236;2023-06-22T12:05:20;30.20;1.00
5930;DHT22;2990;48.746;9.236;2023-06-22T12:07:49;30.30;1.00
5930;DHT22;2990;48.746;9.236;2023-06-22T12:10:15;30.50;7.70
5930;DHT22;2990;48.746;9.236;2023-06-22T12:12:41;30.60;6.40
5930;DHT22;2990;48.746;9.236;2023-06-22T12:15:09;30.60;11.30
5930;DHT22;2990;48.746;9.236;2023-06-22T12:17:34;30.50;8.70
5930;DHT22;2990;48.746;9.236;2023-06-22T12:20:00;30.40;6.70
5930;DHT22;2990;48.746;9.236;2023-06-22T12:22:26;30.20;11.20
5930;DHT22;2990;48.746;9.236;2023-06-22T12:24:52;30.10;15.60
5930;DHT22;2990;48.746;9.236;2023-06-22T12:27:18;30.00;8.90
5930;DHT22;2990;48.746;9.236;2023-06-22T12:29:45;30.00;9.70
5930;DHT22;2990;48.746;9.236;2023-06-22T12:32:11;30.00;16.30
5930;DHT22;2990;48.746;9.236;2023-06-22T12:34:39;30.00;26.60
5930;DHT22;2990;48.746;9.236;2023-06-22T12:37:05;29.90;30.10
5930;DHT22;2990;48.746;9.236;2023-06-22T12:39:31;29.80;20.80
5930;DHT22;2990;48.746;9.236;2023-06-22T12:41:57;29.70;17.70
5930;DHT22;2990;48.746;9.236;2023-06-22T12:44:23;29.50;27.20
5930;DHT22;2990;48.746;9.236;2023-06-22T12:46:48;29.40;24.70
5930;DHT22;2990;48.746;9.236;2023-06-22T12:49:14;29.50;26.90
5930;DHT22;2990;48.746;9.236;2023-06-22T12:51:40;29.50;28.40
5930;DHT22;2990;48.746;9.236;2023-06-22T12:54:07;29.50;25.70
5930;DHT22;2990;48.746;9.236;2023-06-22T12:56:33;29.50;27.00
5930;DHT22;2990;48.746;9.236;2023-06-22T12:58:59;29.50;32.00
5930;DHT22;2990;48.746;9.236;2023-06-22T13:01:27;29.50;26.40
5930;DHT22;2990;48.746;9.236;2023-06-22T13:03:53;29.50;24.80
5930;DHT22;2990;48.746;9.236;2023-06-22T13:06:19;29.60;24.60
5930;DHT22;2990;48.746;9.236;2023-06-22T13:08:44;29.60;26.00
5930;DHT22;2990;48.746;9.236;2023-06-22T13:11:10;29.70;32.00
5930;DHT22;2990;48.746;9.236;2023-06-22T13:13:35;29.50;24.10
5930;DHT22;2990;48.746;9.236;2023-06-22T13:16:01;29.50;21.10
5930;DHT22;2990;48.746;9.236;2023-06-22T13:18:27;29.40;21.30
5930;DHT22;2990;48.746;9.236;2023-06-22T13:20:52;29.60;22.60
5930;DHT22;2990;48.746;9.236;2023-06-22T13:23:20;29.60;25.10
5930;DHT22;2990;48.746;9.236;2023-06-22T13:25:46;29.60;16.50
5930;DHT22;2990;48.746;9.236;2023-06-22T13:28:12;29.80;12.00
5930;DHT22;2990;48.746;9.236;2023-06-22T13:30:39;30.00;14.60
5930;DHT22;2990;48.746;9.236;2023-06-22T13:33:05;30.10;25.00
5930;DHT22;2990;48.746;9.236;2023-06-22T13:35:30;30.10;20.30
5930;DHT22;2990;48.746;9.236;2023-06-22T13:37:56;30.00;12.20
5930;DHT22;2990;48.746;9.236;2023-06-22T13:40:22;30.00;16.20
5930;DHT22;2990;48.746;9.236;2023-06-22T13:42:47;30.00;11.90
5930;DHT22;2990;48.746;9.236;2023-06-22T13:45:13;30.00;11.70
5930;DHT22;2990;48.746;9.236;2023-06-22T13:47:39;30.10;18.30
5930;DHT22;2990;48.746;9.236;2023-06-22T13:50:05;30.00;15.70
5930;DHT22;2990;48.746;9.236;2023-06-22T13:52:31;30.10;12.80
5930;DHT22;2990;48.746;9.236;2023-06-22T13:54:56;30.00;2.70
5930;DHT22;2990;48.746;9.236;2023-06-22T13:57:22;30.10;2.20
5930;DHT22;2990;48.746;9.236;2023-06-22T13:59:47;30.10;1.00
5930;DHT22;2990;48.746;9.236;2023-06-22T14:02:13;30.20;20.80
5930;DHT22;2990;48.746;9.236;2023-06-22T14:04:39;30.20;1.00
5930;DHT22;2990;48.746;9.236;2023-06-22T14:07:04;30.30;1.00
5930;DHT22;2990;48.746;9.236;2023-06-22T14:09:30;30.50;1.00
5930;DHT22;2990;48.746;9.236;2023-06-22T14:11:55;30.70;1.00
5930;DHT22;2990;48.746;9.236;2023-06-22T14:14:21;30.80;1.00
5930;DHT22;2990;48.746;9.236;2023-06-22T14:16:47;31.00;1.00
5930;DHT22;2990;48.746;9.236;2023-06-22T14:19:16;31.20;1.00
5930;DHT22;2990;48.746;9.236;2023-06-22T14:21:42;31.20;1.00
5930;DHT22;2990;48.746;9.236;2023-06-22T14:24:07;31.30;1.00
5930;DHT22;2990;48.746;9.236;2023-06-22T14:26:33;31.30;1.00
5930;DHT22;2990;48.746;9.236;2023-06-22T14:28:58;31.30;1.00
5930;DHT22;2990;48.746;9.236;2023-06-22T14:31:24;31.20;1.00
5930;DHT22;2990;48.746;9.236;2023-06-22T14:33:50;31.10;1.00
5930;DHT22;2990;48.746;9.236;2023-06-22T14:36:16;31.10;1.00
5930;DHT22;2990;48.746;9.236;2023-06-22T14:38:43;31.10;1.00
5930;DHT22;2990;48.746;9.236;2023-06-22T14:41:08;31.40;1.00
5930;DHT22;2990;48.746;9.236;2023-06-22T14:43:34;31.70;1.00
5930;DHT22;2990;48.746;9.236;2023-06-22T14:46:00;32.10;1.00
5930;DHT22;2990;48.746;9.236;2023-06-22T14:48:25;32.40;1.00
5930;DHT22;2990;48.746;9.236;2023-06-22T14:50:51;32.40;1.00
5930;DHT22;2990;48.746;9.236;2023-06-22T14:53:17;32.20;1.00
5930;DHT22;2990;48.746;9.236;2023-06-22T14:55:42;32.10;1.00
5930;DHT22;2990;48.746;9.236;2023-06-22T14:58:10;32.20;1.00
5930;DHT22;2990;48.746;9.236;2023-06-22T15:00:35;32.30;1.00
5930;DHT22;2990;48.746;9.236;2023-06-22T15:03:01;32.40;1.00
5930;DHT22;2990;48.746;9.236;2023-06-22T15:05:26;32.40;1.00
5930;DHT22;2990;48.746;9.236;2023-06-22T15:07:52;32.40;1.00
5930;DHT22;2990;48.746;9.236;2023-06-22T15:10:17;32.40;1.00
5930;DHT22;2990;48.746;9.236;2023-06-22T15:12:43;32.10;1.00
5930;DHT22;2990;48.746;9.236;2023-06-22T15:15:09;31.90;1.00
5930;DHT22;2990;48.746;9.236;2023-06-22T15:17:34;31.80;1.00
5930;DHT22;2990;48.746;9.236;2023-06-22T15:20:02;31.90;1.00
5930;DHT22;2990;48.746;9.236;2023-06-22T15:22:30;31.90;1.00
5930;DHT22;2990;48.746;9.236;2023-06-22T15:24:56;31.90;1.00
5930;DHT22;2990;48.746;9.236;2023-06-22T15:27:24;31.90;1.00
5930;DHT22;2990;48.746;9.236;2023-06-22T15:29:49;32.10;1.00
5930;DHT22;2990;48.746;9.236;2023-06-22T15:32:15;31.90;1.00
5930;DHT22;2990;48.746;9.236;2023-06-22T15:34:40;31.90;1.00
5930;DHT22;2990;48.746;9.236;2023-06-22T15:37:06;32.00;1.00
5930;DHT22;2990;48.746;9.236;2023-06-22T15:39:31;32.00;1.00
5930;DHT22;2990;48.746;9.236;2023-06-22T15:41:57;31.90;1.00
5930;DHT22;2990;48.746;9.236;2023-06-22T15:44:23;31.80;1.00
5930;DHT22;2990;48.746;9.236;2023-06-22T15:46:48;32.10;1.00
5930;DHT22;2990;48.746;9.236;2023-06-22T15:49:15;32.00;1.00
5930;DHT22;2990;48.746;9.236;2023-06-22T15:51:41;31.90;1.00
5930;DHT22;2990;48.746;9.236;2023-06-22T15:54:06;31.50;1.00
5930;DHT22;2990;48.746;9.236;2023-06-22T15:56:32;31.50;1.00
5930;DHT22;2990;48.746;9.236;2023-06-22T15:58:58;31.50;1.00
5930;DHT22;2990;48.746;9.236;2023-06-22T16:01:23;31.40;1.00
5930;DHT22;2990;48.746;9.236;2023-06-22T16:03:52;31.10;1.00
5930;DHT22;2990;48.746;9.236;2023-06-22T16:06:18;30.90;1.00
5930;DHT22;2990;48.746;9.236;2023-06-22T16:08:44;30.70;1.00
5930;DHT22;2990;48.746;9.236;2023-06-22T16:11:10;30.60;1.00
5930;DHT22;2990;48.746;9.236;2023-06-22T16:13:35;30.40;1.00